createdAt,value
2022-08-03T00:00:15.678Z,22.95
2022-08-03T00:02:47.681Z,22.93
2022-08-03T00:05:19.866Z,22.92
2022-08-03T00:07:51.805Z,22.90
2022-08-03T00:10:25.004Z,22.84
2022-08-03T00:12:57.099Z,22.80
2022-08-03T00:15:29.141Z,22.76
2022-08-03T00:18:01.235Z,22.73
2022-08-03T00:20:33.191Z,22.70
2022-08-03T00:23:06.056Z,22.63
2022-08-03T00:25:38.987Z,22.55
2022-08-03T00:28:10.961Z,22.55
2022-08-03T00:30:42.927Z,22.53
2022-08-03T00:33:17.321Z,22.51
2022-08-03T00:35:50.114Z,22.50
2022-08-03T00:38:22.493Z,22.48
2022-08-03T00:40:55.969Z,22.43
2022-08-03T00:43:27.987Z,22.41
2022-08-03T00:46:00.036Z,22.38
2022-08-03T00:48:33.682Z,22.39
2022-08-03T00:51:06.926Z,22.33
2022-08-03T00:53:39.008Z,22.32
2022-08-03T00:56:15.292Z,22.32
2022-08-03T00:58:47.775Z,22.30
2022-08-03T01:01:19.769Z,22.27
2022-08-03T01:03:51.821Z,22.23
2022-08-03T01:06:30.542Z,22.22
2022-08-03T01:09:17.214Z,22.18
2022-08-03T01:12:01.924Z,22.14
2022-08-03T01:14:54.553Z,22.12
2022-08-03T01:17:56.823Z,22.11
2022-08-03T01:20:35.528Z,22.10
2022-08-03T01:23:29.655Z,22.11
2022-08-03T01:26:50.098Z,22.08
2022-08-03T01:29:43.385Z,22.03
2022-08-03T01:33:01.091Z,22.01
2022-08-03T01:35:39.923Z,21.99
2022-08-03T01:38:25.183Z,22.00
2022-08-03T01:40:57.966Z,21.96
2022-08-03T01:44:26.792Z,21.94
2022-08-03T01:46:25.834Z,21.96
2022-08-03T01:48:59.607Z,21.95
2022-08-03T01:51:57.924Z,21.91
2022-08-03T01:54:26.118Z,21.90
2022-08-03T01:56:59.916Z,21.89
2022-08-03T01:59:35.368Z,21.86
2022-08-03T02:02:19.526Z,21.83
2022-08-03T02:05:02.173Z,21.80
2022-08-03T02:07:35.554Z,21.77
2022-08-03T02:10:09.822Z,21.73
2022-08-03T02:12:46.074Z,21.66
2022-08-03T02:15:19.600Z,21.65
2022-08-03T02:17:53.288Z,21.65
2022-08-03T02:20:26.270Z,21.67
2022-08-03T02:22:58.319Z,21.65
2022-08-03T02:25:32.714Z,21.64
2022-08-03T02:28:14.857Z,21.62
2022-08-03T02:30:55.417Z,21.58
2022-08-03T02:33:33.421Z,21.58
2022-08-03T02:36:06.752Z,21.54
2022-08-03T02:38:42.966Z,21.55
2022-08-03T02:41:18.638Z,21.53
2022-08-03T02:44:06.010Z,21.48
2022-08-03T02:46:44.596Z,21.49
2022-08-03T02:49:40.690Z,21.46
2022-08-03T02:52:17.143Z,21.46
2022-08-03T02:54:53.911Z,21.44
2022-08-03T02:57:28.902Z,21.39
2022-08-03T03:00:01.669Z,21.37
2022-08-03T03:02:34.822Z,21.33
2022-08-03T03:05:53.146Z,21.27
2022-08-03T03:08:00.947Z,21.23
2022-08-03T03:10:33.453Z,21.26
2022-08-03T03:13:06.192Z,21.19
2022-08-03T03:15:39.925Z,21.20
2022-08-03T03:18:13.045Z,21.20
2022-08-03T03:20:46.571Z,21.20
2022-08-03T03:23:23.424Z,21.23
2022-08-03T03:25:58.566Z,21.19
2022-08-03T03:28:32.012Z,21.16
2022-08-03T03:31:08.353Z,21.09
2022-08-03T03:33:40.538Z,21.07
2022-08-03T03:36:12.861Z,21.06
2022-08-03T03:38:45.075Z,21.07
2022-08-03T03:41:17.602Z,21.07
2022-08-03T03:43:50.937Z,21.09
2022-08-03T03:46:23.593Z,21.10
2022-08-03T03:48:55.820Z,21.04
2022-08-03T03:51:27.799Z,21.06
2022-08-03T03:54:02.532Z,21.07
2022-08-03T03:56:34.542Z,21.04
2022-08-03T03:59:06.512Z,21.02
2022-08-03T04:01:40.047Z,20.98
2022-08-03T04:04:30.322Z,21.00
2022-08-03T04:07:21.105Z,20.94
2022-08-03T04:10:14.418Z,20.95
2022-08-03T04:12:50.379Z,20.99
2022-08-03T04:15:23.801Z,20.94
2022-08-03T04:17:59.287Z,20.93
2022-08-03T04:20:34.509Z,20.88
2022-08-03T04:23:14.199Z,20.87
2022-08-03T04:25:51.871Z,20.78
2022-08-03T04:28:30.981Z,20.72
2022-08-03T04:31:05.561Z,20.73
2022-08-03T04:33:39.878Z,20.72
2022-08-03T04:36:18.324Z,20.77
2022-08-03T04:39:04.692Z,20.84
2022-08-03T04:42:04.325Z,20.85
2022-08-03T04:44:31.954Z,20.86
2022-08-03T04:47:04.397Z,20.88
2022-08-03T04:49:40.738Z,20.91
2022-08-03T04:52:13.235Z,20.95
2022-08-03T04:54:50.729Z,21.00
2022-08-03T04:57:23.642Z,20.99
2022-08-03T05:00:02.139Z,21.02
2022-08-03T05:02:35.320Z,21.08
2022-08-03T05:05:07.786Z,21.08
2022-08-03T05:07:40.840Z,21.14
2022-08-03T05:10:14.992Z,21.03
2022-08-03T05:12:48.862Z,21.14
2022-08-03T05:15:20.971Z,21.16
2022-08-03T05:17:52.930Z,21.22
2022-08-03T05:20:24.888Z,21.37
2022-08-03T05:22:57.529Z,21.46
2022-08-03T05:25:30.095Z,21.51
2022-08-03T05:28:02.078Z,21.62
2022-08-03T05:30:34.711Z,21.66
2022-08-03T05:33:08.967Z,21.70
2022-08-03T05:35:57.882Z,21.82
2022-08-03T05:38:34.592Z,21.85
2022-08-03T05:41:22.540Z,21.96
2022-08-03T05:43:56.181Z,22.05
2022-08-03T05:46:28.131Z,22.18
2022-08-03T05:49:00.190Z,22.28
2022-08-03T05:51:32.212Z,22.29
2022-08-03T05:54:04.508Z,22.37
2022-08-03T05:56:36.493Z,22.48
2022-08-03T05:59:35.821Z,22.52
2022-08-03T06:02:00.682Z,22.43
2022-08-03T06:04:32.769Z,22.49
2022-08-03T06:07:04.757Z,22.60
2022-08-03T06:10:33.827Z,22.61
2022-08-03T06:12:29.456Z,22.64
2022-08-03T06:15:02.066Z,22.75
2022-08-03T06:17:37.414Z,22.89
2022-08-03T06:20:10.962Z,22.95
2022-08-03T06:22:50.542Z,23.00
2022-08-03T06:25:23.104Z,23.14
2022-08-03T06:27:55.080Z,23.19
2022-08-03T06:30:27.324Z,23.24
2022-08-03T06:32:59.277Z,23.25
2022-08-03T06:35:31.381Z,23.26
2022-08-03T06:38:03.357Z,23.26
2022-08-03T06:40:40.230Z,23.32
2022-08-03T06:43:13.973Z,23.45
2022-08-03T06:45:48.074Z,23.51
2022-08-03T06:48:20.035Z,23.50
2022-08-03T06:50:52.091Z,23.61
2022-08-03T06:53:24.015Z,23.65
2022-08-03T06:55:56.247Z,23.75
2022-08-03T06:58:28.254Z,23.81
2022-08-03T07:01:00.867Z,23.87
2022-08-03T07:03:33.074Z,23.97
2022-08-03T07:06:05.135Z,24.05
2022-08-03T07:08:37.471Z,24.15
2022-08-03T07:11:09.434Z,24.36
2022-08-03T07:13:41.475Z,24.40
2022-08-03T07:16:13.432Z,24.43
2022-08-03T07:18:45.393Z,24.57
2022-08-03T07:21:17.371Z,24.65
2022-08-03T07:23:49.370Z,24.63
2022-08-03T07:26:21.464Z,24.78
2022-08-03T07:28:53.446Z,24.84
2022-08-03T07:31:25.415Z,24.93
2022-08-03T07:33:57.478Z,25.07
2022-08-03T07:36:29.519Z,25.19
2022-08-03T07:39:01.490Z,25.41
2022-08-03T07:41:50.628Z,25.51
2022-08-03T07:44:22.621Z,25.63
2022-08-03T07:46:54.668Z,25.74
2022-08-03T07:49:28.891Z,25.87
2022-08-03T07:52:19.628Z,26.03
2022-08-03T07:54:51.762Z,26.02
2022-08-03T07:57:23.996Z,26.04
2022-08-03T08:00:01.717Z,25.95
2022-08-03T08:02:34.706Z,26.02
2022-08-03T08:05:07.296Z,26.12
2022-08-03T08:07:39.804Z,26.46
2022-08-03T08:10:11.863Z,27.03
2022-08-03T08:12:44.997Z,27.35
2022-08-03T08:15:17.018Z,27.72
2022-08-03T08:17:53.622Z,28.04
2022-08-03T08:20:38.089Z,28.39
2022-08-03T08:23:38.652Z,28.42
2022-08-03T08:26:02.315Z,28.71
2022-08-03T08:28:34.333Z,29.33
2022-08-03T08:31:06.519Z,29.22
2022-08-03T08:36:30.411Z,29.25
2022-08-03T08:39:02.594Z,29.47
2022-08-03T08:41:34.986Z,29.77
2022-08-03T08:44:08.343Z,30.09
2022-08-03T08:46:40.502Z,30.57
2022-08-03T08:49:17.497Z,30.42
2022-08-03T08:52:00.499Z,30.65
2022-08-03T08:54:33.631Z,30.88
2022-08-03T08:57:16.503Z,30.90
2022-08-03T08:59:58.992Z,31.00
2022-08-03T09:02:31.673Z,30.94
2022-08-03T09:05:07.484Z,30.63
2022-08-03T09:07:41.932Z,30.81
2022-08-03T09:10:19.909Z,30.49
2022-08-03T09:12:53.111Z,30.19
2022-08-03T09:15:28.693Z,30.47
2022-08-03T09:18:02.801Z,30.47
2022-08-03T09:20:36.952Z,30.05
2022-08-03T09:23:58.913Z,30.09
2022-08-03T09:26:03.095Z,30.25
2022-08-03T09:29:00.545Z,30.58
2022-08-03T09:31:43.138Z,30.95
2022-08-03T09:34:18.411Z,31.65
2022-08-03T09:36:51.647Z,31.90
2022-08-03T09:39:40.923Z,32.00
2022-08-03T09:42:19.060Z,31.88
2022-08-03T09:44:58.017Z,31.22
2022-08-03T09:47:36.426Z,30.98
2022-08-03T09:50:10.735Z,31.05
2022-08-03T09:52:50.180Z,30.87
2022-08-03T09:56:35.605Z,30.76
2022-08-03T09:58:17.121Z,30.71
2022-08-03T10:01:24.494Z,31.04
2022-08-03T10:04:04.285Z,31.30
2022-08-03T10:06:36.766Z,31.56
2022-08-03T10:09:16.908Z,32.11
2022-08-03T10:11:49.517Z,32.42
2022-08-03T10:14:22.715Z,32.20
2022-08-03T10:16:54.685Z,32.34
2022-08-03T10:19:26.828Z,32.74
2022-08-03T10:22:09.922Z,32.53
2022-08-03T10:25:03.922Z,32.78
2022-08-03T10:27:42.664Z,32.97
2022-08-03T10:30:15.088Z,33.30
2022-08-03T10:32:57.672Z,33.21
2022-08-03T10:35:30.286Z,33.69
2022-08-03T10:38:10.653Z,33.88
2022-08-03T10:40:49.593Z,33.89
2022-08-03T10:43:53.609Z,33.90
2022-08-03T10:46:27.548Z,34.41
2022-08-03T10:49:00.676Z,34.54
2022-08-03T10:51:33.701Z,34.42
2022-08-03T10:54:05.775Z,35.22
2022-08-03T10:57:13.605Z,36.31
2022-08-03T10:59:46.477Z,37.43
2022-08-03T11:02:18.621Z,38.10
2022-08-03T11:05:29.933Z,38.84
2022-08-03T11:08:31.509Z,38.21
2022-08-03T11:11:18.711Z,38.98
2022-08-03T11:14:08.238Z,38.54
2022-08-03T11:17:14.369Z,37.90
2022-08-03T11:19:57.564Z,37.80
2022-08-03T11:22:50.990Z,38.52
2022-08-03T11:25:34.832Z,38.60
2022-08-03T11:28:42.837Z,38.79
2022-08-03T11:31:48.527Z,39.11
2022-08-03T11:34:20.038Z,39.91
2022-08-03T11:37:29.941Z,39.88
2022-08-03T11:40:04.580Z,40.81
2022-08-03T11:42:36.639Z,41.82
2022-08-03T11:45:10.092Z,42.96
2022-08-03T11:47:50.648Z,43.39
2022-08-03T11:50:24.495Z,43.55
2022-08-03T11:52:56.514Z,43.22
2022-08-03T11:55:32.094Z,42.83
2022-08-03T11:59:01.219Z,42.73
2022-08-03T12:01:07.797Z,42.38
2022-08-03T12:03:39.809Z,42.77
2022-08-03T12:06:14.787Z,42.42
2022-08-03T12:08:47.411Z,42.71
2022-08-03T12:11:20.034Z,43.16
2022-08-03T12:14:45.803Z,43.76
2022-08-03T12:16:48.872Z,43.78
2022-08-03T12:19:20.901Z,42.73
2022-08-03T12:21:55.820Z,42.96
2022-08-03T12:24:42.738Z,42.80
2022-08-03T12:27:25.297Z,43.19
2022-08-03T12:29:59.476Z,44.50
2022-08-03T12:32:31.957Z,43.93
2022-08-03T12:35:04.697Z,44.47
2022-08-03T12:37:37.339Z,44.20
2022-08-03T12:40:13.215Z,44.60
2022-08-03T12:42:47.383Z,43.73
2022-08-03T12:45:27.135Z,43.28
2022-08-03T12:48:01.910Z,44.17
2022-08-03T12:50:37.257Z,43.67
2022-08-03T12:53:10.359Z,43.96
2022-08-03T12:55:57.922Z,44.60
2022-08-03T12:58:36.216Z,45.32
2022-08-03T13:01:09.856Z,46.10
2022-08-03T13:03:49.999Z,45.60
2022-08-03T13:06:25.445Z,45.54
2022-08-03T13:09:08.157Z,45.26
2022-08-03T13:11:58.079Z,44.55
2022-08-03T13:14:32.140Z,45.41
2022-08-03T13:17:06.433Z,44.91
2022-08-03T13:19:39.545Z,44.09
2022-08-03T13:22:13.989Z,43.61
2022-08-03T13:24:49.741Z,43.88
2022-08-03T13:28:03.421Z,43.26
2022-08-03T13:30:16.192Z,43.23
2022-08-03T13:33:00.712Z,43.41
2022-08-03T13:35:32.709Z,43.45
2022-08-03T13:38:04.714Z,41.11
2022-08-03T13:40:41.750Z,40.17
2022-08-03T13:43:14.005Z,39.06
2022-08-03T13:45:51.247Z,38.83
2022-08-03T13:48:34.748Z,38.36
2022-08-03T13:51:21.767Z,38.90
2022-08-03T13:53:54.784Z,38.62
2022-08-03T13:56:27.913Z,38.14
2022-08-03T13:59:00.025Z,38.42
2022-08-03T14:01:54.244Z,38.72
2022-08-03T14:04:24.082Z,38.41
2022-08-03T14:06:56.183Z,37.97
2022-08-03T14:09:28.141Z,38.13
2022-08-03T14:12:07.633Z,38.21
2022-08-03T14:14:41.107Z,39.21
2022-08-03T14:17:13.110Z,39.32
2022-08-03T14:19:53.096Z,38.54
2022-08-03T14:22:25.982Z,38.10
2022-08-03T14:24:58.075Z,37.86
2022-08-03T14:27:30.342Z,37.60
2022-08-03T14:30:02.353Z,36.87
2022-08-03T14:32:34.519Z,36.39
2022-08-03T14:35:07.099Z,36.09
2022-08-03T14:37:39.270Z,35.82
2022-08-03T14:40:11.492Z,35.63
2022-08-03T14:42:43.600Z,35.67
2022-08-03T14:45:20.468Z,35.50
2022-08-03T14:50:27.892Z,34.89
2022-08-03T14:50:50.935Z,34.31
2022-08-03T14:53:24.425Z,34.27
2022-08-03T14:55:56.971Z,34.21
2022-08-03T14:58:29.062Z,34.23
2022-08-03T15:01:01.101Z,34.45
2022-08-03T15:03:33.134Z,34.79
2022-08-03T15:06:05.146Z,34.90
2022-08-03T15:08:37.194Z,35.02
2022-08-03T15:11:09.236Z,34.48
2022-08-03T15:13:41.256Z,34.32
2022-08-03T15:16:13.203Z,34.20
2022-08-03T15:18:45.185Z,34.27
2022-08-03T15:21:46.250Z,34.22
2022-08-03T15:24:09.722Z,34.30
2022-08-03T15:26:41.993Z,34.32
2022-08-03T15:30:09.519Z,34.58
2022-08-03T15:32:09.433Z,34.85
2022-08-03T15:34:41.840Z,34.84
2022-08-03T15:37:25.666Z,34.79
2022-08-03T15:39:59.603Z,34.64
2022-08-03T15:42:34.248Z,34.52
2022-08-03T15:45:06.899Z,34.27
2022-08-03T15:47:38.999Z,34.13
2022-08-03T15:50:12.064Z,33.94
2022-08-03T15:52:44.011Z,33.91
2022-08-03T15:55:17.225Z,33.94
2022-08-03T15:59:04.358Z,33.86
2022-08-03T16:00:42.939Z,33.87
2022-08-03T16:03:15.003Z,33.84
2022-08-03T16:05:47.019Z,33.72
2022-08-03T16:08:19.017Z,33.62
2022-08-03T16:10:51.126Z,33.70
2022-08-03T16:14:14.119Z,33.73
2022-08-03T16:16:17.038Z,33.64
2022-08-03T16:18:48.986Z,33.68
2022-08-03T16:21:21.789Z,33.63
2022-08-03T16:23:56.264Z,33.55
2022-08-03T16:26:28.680Z,33.54
2022-08-03T16:29:04.292Z,33.42
2022-08-03T16:31:51.321Z,33.49
2022-08-03T16:34:23.604Z,33.43
2022-08-03T16:36:55.586Z,33.49
2022-08-03T16:39:27.611Z,33.39
2022-08-03T16:42:01.719Z,33.27
2022-08-03T16:44:33.957Z,33.08
2022-08-03T16:47:06.093Z,32.98
2022-08-03T16:49:53.743Z,32.91
2022-08-03T16:52:28.400Z,32.87
2022-08-03T16:55:00.667Z,32.93
2022-08-03T16:57:59.040Z,32.94
2022-08-03T17:00:33.960Z,32.94
2022-08-03T17:03:18.695Z,32.98
2022-08-03T17:05:51.295Z,33.07
2022-08-03T17:08:26.814Z,33.06
2022-08-03T17:10:59.381Z,32.93
2022-08-03T17:13:47.515Z,32.93
2022-08-03T17:16:19.868Z,32.86
2022-08-03T17:18:57.722Z,32.86
2022-08-03T17:21:39.798Z,32.86
2022-08-03T17:24:35.333Z,32.68
2022-08-03T17:28:51.421Z,32.58
2022-08-03T17:30:20.672Z,32.54
2022-08-03T17:32:57.943Z,32.41
2022-08-03T17:35:36.424Z,32.36
2022-08-03T17:38:16.529Z,32.29
2022-08-03T17:40:52.140Z,32.29
2022-08-03T17:43:44.365Z,32.28
2022-08-03T17:46:19.529Z,32.22
2022-08-03T17:48:52.066Z,32.21
2022-08-03T17:51:53.110Z,32.23
2022-08-03T17:54:36.903Z,32.19
2022-08-03T17:58:02.803Z,32.08
2022-08-03T18:00:54.948Z,32.01
2022-08-03T18:03:58.312Z,31.93
2022-08-03T18:06:36.040Z,31.88
2022-08-03T18:10:04.772Z,31.78
2022-08-03T18:12:07.004Z,31.74
2022-08-03T18:14:57.773Z,31.70
2022-08-03T18:17:55.655Z,31.64
2022-08-03T18:20:34.627Z,31.55
2022-08-03T18:23:25.048Z,31.46
2022-08-03T18:26:10.739Z,31.42
2022-08-03T18:28:44.967Z,31.34
2022-08-03T18:32:00.267Z,31.27
2022-08-03T18:34:16.177Z,31.16
2022-08-03T18:36:54.761Z,31.05
2022-08-03T18:39:28.815Z,30.94
2022-08-03T18:42:02.783Z,30.82
2022-08-03T18:44:53.010Z,30.65
2022-08-03T18:47:52.651Z,30.43
2022-08-03T18:50:39.085Z,30.27
2022-08-03T18:53:19.828Z,30.12
2022-08-03T18:56:26.222Z,29.94
2022-08-03T18:59:04.063Z,29.81
2022-08-03T19:02:00.610Z,29.65
2022-08-03T19:04:47.307Z,29.33
2022-08-03T19:07:27.196Z,29.04
2022-08-03T19:10:00.450Z,28.89
2022-08-03T19:12:52.231Z,28.70
2022-08-03T19:15:36.461Z,28.51
2022-08-03T19:18:17.892Z,28.36
2022-08-03T19:20:53.191Z,28.14
2022-08-03T19:23:31.060Z,27.91
2022-08-03T19:26:07.267Z,27.58
2022-08-03T19:28:59.735Z,27.55
2022-08-03T19:31:35.008Z,27.41
2022-08-03T19:34:07.530Z,27.39
2022-08-03T19:36:43.773Z,27.39
2022-08-03T19:39:16.293Z,27.24
2022-08-03T19:41:52.439Z,27.20
2022-08-03T19:44:30.563Z,27.09
2022-08-03T19:47:16.972Z,26.94
2022-08-03T19:50:05.082Z,26.90
2022-08-03T19:52:40.305Z,26.73
2022-08-03T19:55:18.263Z,26.65
2022-08-03T19:57:58.127Z,26.56
2022-08-03T20:00:36.929Z,26.46
2022-08-03T20:03:19.671Z,26.47
2022-08-03T20:05:55.058Z,26.37
2022-08-03T20:08:27.597Z,26.32
2022-08-03T20:11:00.957Z,26.11
2022-08-03T20:13:38.888Z,26.09
2022-08-03T20:16:11.324Z,25.99
2022-08-03T20:18:44.847Z,25.99
2022-08-03T20:21:20.284Z,25.95
2022-08-03T20:24:02.888Z,25.94
2022-08-03T20:26:55.474Z,25.88
2022-08-03T20:30:05.220Z,25.77
2022-08-03T20:32:26.541Z,25.69
2022-08-03T20:34:58.737Z,25.72
2022-08-03T20:37:31.237Z,25.65
2022-08-03T20:40:05.752Z,25.54
2022-08-03T20:42:37.833Z,25.50
2022-08-03T20:45:15.168Z,25.41
2022-08-03T20:48:05.411Z,25.40
2022-08-03T20:50:41.466Z,25.34
2022-08-03T20:53:15.645Z,25.34
2022-08-03T20:56:10.156Z,25.29
2022-08-03T20:58:43.215Z,25.29
2022-08-03T21:01:27.758Z,25.21
2022-08-03T21:04:11.156Z,25.17
2022-08-03T21:06:53.507Z,25.15
2022-08-03T21:09:33.471Z,25.07
2022-08-03T21:12:19.003Z,25.03
2022-08-03T21:15:06.918Z,25.00
2022-08-03T21:17:47.135Z,24.93
2022-08-03T21:20:22.266Z,24.92
2022-08-03T21:22:57.204Z,24.86
2022-08-03T21:25:32.887Z,24.85
2022-08-03T21:28:08.026Z,24.69
2022-08-03T21:30:40.074Z,24.64
2022-08-03T21:33:12.434Z,24.66
2022-08-03T21:35:46.404Z,24.64
2022-08-03T21:38:21.108Z,24.65
2022-08-03T21:41:03.316Z,24.64
2022-08-03T21:43:35.462Z,24.64
2022-08-03T21:46:08.373Z,24.55
2022-08-03T21:48:42.018Z,24.52
2022-08-03T21:51:19.323Z,24.48
2022-08-03T21:54:03.812Z,24.41
2022-08-03T21:56:42.160Z,24.36
2022-08-03T21:59:20.144Z,24.33
2022-08-03T22:01:55.400Z,24.26
2022-08-03T22:04:55.428Z,24.18
2022-08-03T22:07:28.331Z,24.12
2022-08-03T22:10:02.967Z,24.12
2022-08-03T22:12:35.959Z,24.12
2022-08-03T22:15:12.199Z,24.09
2022-08-03T22:17:55.916Z,24.10
2022-08-03T22:20:29.485Z,24.08
2022-08-03T22:23:06.317Z,24.10
2022-08-03T22:25:40.654Z,24.11
2022-08-03T22:28:15.604Z,24.10
2022-08-03T22:30:48.662Z,24.05
2022-08-03T22:33:21.216Z,24.08
2022-08-03T22:35:57.754Z,24.06
2022-08-03T22:38:32.720Z,24.04
2022-08-03T22:41:05.872Z,24.04
2022-08-03T22:43:38.276Z,24.04
2022-08-03T22:46:15.548Z,24.03
2022-08-03T22:48:51.600Z,23.98
2022-08-03T22:51:23.785Z,23.97
2022-08-03T22:53:56.330Z,23.92
2022-08-03T22:56:28.481Z,23.89
2022-08-03T22:59:00.550Z,23.86
2022-08-03T23:01:41.508Z,23.81
2022-08-03T23:04:13.484Z,23.76
2022-08-03T23:06:49.550Z,23.73
2022-08-03T23:09:24.374Z,23.69
2022-08-03T23:11:57.933Z,23.70
2022-08-03T23:14:33.648Z,23.64
2022-08-03T23:17:06.531Z,23.62
2022-08-03T23:19:44.768Z,23.58
2022-08-03T23:22:29.378Z,23.54
2022-08-03T23:25:04.113Z,23.51
2022-08-03T23:27:40.549Z,23.47
2022-08-03T23:30:13.632Z,23.45
2022-08-03T23:32:46.838Z,23.48
2022-08-03T23:36:29.113Z,23.44
2022-08-03T23:38:38.064Z,23.43
2022-08-03T23:41:10.539Z,23.45
2022-08-03T23:43:51.827Z,23.44
2022-08-03T23:46:27.627Z,23.39
2022-08-03T23:49:00.663Z,23.39
2022-08-03T23:52:17.542Z,23.40
2022-08-03T23:55:03.777Z,23.44
2022-08-03T23:57:45.324Z,23.45
